Durham, Arkansas
Current Conditions -  °F | °C
As of 8:53 PM on Sunday 21 Dec 2014 (Local Time) from KFYV Reporting Station
Overcast Overcast  
Wind Chill: 41°   Ceiling: 1900
Heat Index: 45°   Visibility: 10mi
Dew Point: 39°   Wind: 7mph
Humidity: 80%   Direction: 150°SSE
Pressure: 29.83"   Gusts: NA
Location:  35.9902°N, 94.083°W
Report Text: KFYV 220253Z 15006KT 10SM OVC019 07/04 A2983 RMK AO2 SLP102 T00720039 58015
Loading
Personal Weather Stations






























Interactive Weather Map New forecast layout! Learn more

10-Day Weather Forecast

Advertisements
Track Severe Weather on mobile